Time;durP1;ratioP1;P1;durP2;ratioP2;P2;SDS_P1;SDS_P2;PMS_P1;PMS_P2;Temp;Humidity;BMP_temperature;BMP_pressure;BME280_temperature;BME280_humidity;BME280_pressure;Samples;Min_cycle;Max_cycle;Signal;HPM_P1;HPM_P2
2022/06/10 00:01:08;;;;;;;19.52;5.07;;;;;;;;;;5083084;28;20067;-75
2022/06/10 00:03:35;;;;;;;17.25;4.68;;;;;;;;;;5080038;28;20040;-76
2022/06/10 00:06:04;;;;;;;15.80;4.00;;;;;;;;;;5072493;28;20023;-78
2022/06/10 00:08:32;;;;;;;13.80;4.65;;;;;;;;;;5069781;28;20028;-79
2022/06/10 00:10:59;;;;;;;14.23;3.90;;;;;;;;;;5080023;28;20730;-77
2022/06/10 00:13:28;;;;;;;23.83;4.60;;;;;;;;;;5081091;28;20074;-77
2022/06/10 00:15:55;;;;;;;26.38;4.32;;;;;;;;;;5082713;28;20031;-76
2022/06/10 00:18:22;;;;;;;17.00;4.40;;;;;;;;;;5082753;28;20020;-76
2022/06/10 00:20:48;;;;;;;23.95;4.82;;;;;;;;;;5082508;28;20050;-75
2022/06/10 00:23:14;;;;;;;18.42;5.32;;;;;;;;;;5082237;28;20062;-80
2022/06/10 00:25:40;;;;;;;18.20;4.68;;;;;;;;;;5083004;28;20050;-75
2022/06/10 00:28:07;;;;;;;15.50;3.92;;;;;;;;;;5081144;28;20035;-75
2022/06/10 00:30:33;;;;;;;21.35;3.90;;;;;;;;;;5081600;28;20028;-76
2022/06/10 00:33:00;;;;;;;16.85;4.00;;;;;;;;;;5083024;28;20089;-75
2022/06/10 00:35:27;;;;;;;16.55;4.30;;;;;;;;;;5075052;28;20039;-76
2022/06/10 00:37:53;;;;;;;18.15;4.43;;;;;;;;;;5082364;28;20031;-76
2022/06/10 00:40:23;;;;;;;18.70;4.25;;;;;;;;;;5081128;28;20028;-75
2022/06/10 00:42:49;;;;;;;14.23;4.18;;;;;;;;;;5075538;28;20025;-77
2022/06/10 00:45:34;;;;;;;15.35;4.00;;;;;;;;;;5084820;28;20027;-74
2022/06/10 00:48:00;;;;;;;12.55;3.97;;;;;;;;;;5084695;28;20024;-75
2022/06/10 00:50:28;;;;;;;11.98;3.75;;;;;;;;;;5078403;28;20054;-75
2022/06/10 00:52:57;;;;;;;16.30;3.90;;;;;;;;;;5082831;28;20115;-75
2022/06/10 00:55:28;;;;;;;13.05;4.32;;;;;;;;;;5070485;28;20426;-76
2022/06/10 00:57:58;;;;;;;16.30;4.07;;;;;;;;;;5084183;28;20048;-75
2022/06/10 01:00:24;;;;;;;13.52;4.18;;;;;;;;;;5084147;28;20028;-75
2022/06/10 01:02:50;;;;;;;17.25;4.45;;;;;;;;;;5064667;28;20031;-75
2022/06/10 01:05:22;;;;;;;14.52;4.00;;;;;;;;;;5084154;28;20016;-74
2022/06/10 01:07:58;;;;;;;17.60;4.70;;;;;;;;;;5077863;28;20645;-76
2022/06/10 01:10:25;;;;;;;13.90;4.47;;;;;;;;;;5078053;28;20528;-76
2022/06/10 01:12:54;;;;;;;24.25;4.93;;;;;;;;;;5069959;28;20008;-75
2022/06/10 01:15:59;;;;;;;17.08;4.35;;;;;;;;;;5062562;28;20056;-77
2022/06/10 01:18:25;;;;;;;14.35;4.53;;;;;;;;;;4981926;28;20520;-75
2022/06/10 01:20:54;;;;;;;22.92;5.05;;;;;;;;;;4972028;28;20121;-74
2022/06/10 01:23:40;;;;;;;18.85;4.75;;;;;;;;;;5020579;28;20163;-76
2022/06/10 01:26:20;;;;;;;21.85;4.95;;;;;;;;;;5072419;28;20074;-75
2022/06/10 01:29:05;;;;;;;23.77;5.70;;;;;;;;;;5081803;28;20063;-77
2022/06/10 01:31:34;;;;;;;17.55;4.88;;;;;;;;;;5056468;28;20392;-75
2022/06/10 01:34:16;;;;;;;20.20;5.43;;;;;;;;;;5084127;28;20016;-76
2022/06/10 01:37:00;;;;;;;24.17;5.85;;;;;;;;;;5079012;28;20070;-79
2022/06/10 01:39:42;;;;;;;24.65;4.90;;;;;;;;;;5071487;28;20032;-75
2022/06/10 01:42:17;;;;;;;24.02;4.63;;;;;;;;;;5083771;28;20044;-75
2022/06/10 01:44:56;;;;;;;17.45;5.25;;;;;;;;;;5083916;28;20038;-74
2022/06/10 01:47:55;;;;;;;16.55;4.82;;;;;;;;;;5069522;28;20023;-74
2022/06/10 01:50:33;;;;;;;23.25;5.45;;;;;;;;;;5017374;28;20033;-75
2022/06/10 01:53:03;;;;;;;15.75;5.07;;;;;;;;;;5082399;28;20038;-75
2022/06/10 01:55:32;;;;;;;18.20;5.25;;;;;;;;;;5084369;28;20034;-75
2022/06/10 01:58:00;;;;;;;19.65;4.97;;;;;;;;;;5082116;28;20063;-76
2022/06/10 02:00:28;;;;;;;22.48;5.30;;;;;;;;;;5083753;28;20020;-76
2022/06/10 02:03:00;;;;;;;19.92;5.15;;;;;;;;;;5083829;28;20158;-74
2022/06/10 02:05:27;;;;;;;16.13;4.68;;;;;;;;;;5083028;28;20031;-74
2022/06/10 02:08:11;;;;;;;26.35;5.50;;;;;;;;;;5079509;28;20369;-75
2022/06/10 02:10:55;;;;;;;19.40;4.55;;;;;;;;;;5072289;28;20028;-75
2022/06/10 02:13:23;;;;;;;17.15;4.75;;;;;;;;;;5089389;28;20119;-75
2022/06/10 02:15:55;;;;;;;17.83;4.90;;;;;;;;;;5089641;28;20403;-75
2022/06/10 02:18:28;;;;;;;16.15;4.63;;;;;;;;;;5089825;28;20011;-75
2022/06/10 02:20:57;;;;;;;14.45;4.60;;;;;;;;;;5079948;28;20033;-75
2022/06/10 02:23:26;;;;;;;23.58;5.65;;;;;;;;;;5083879;28;20460;-74
2022/06/10 02:25:55;;;;;;;13.77;4.28;;;;;;;;;;5089507;28;20073;-75
2022/06/10 02:28:33;;;;;;;18.45;4.03;;;;;;;;;;5087059;28;20028;-76
2022/06/10 02:31:08;;;;;;;15.15;4.88;;;;;;;;;;5089758;28;20031;-75
2022/06/10 02:33:35;;;;;;;18.30;4.10;;;;;;;;;;5089538;28;20032;-75
2022/06/10 02:36:07;;;;;;;17.10;4.38;;;;;;;;;;5088282;28;20016;-75
2022/06/10 02:38:39;;;;;;;21.63;4.53;;;;;;;;;;5089404;28;20032;-77
2022/06/10 02:41:06;;;;;;;16.17;4.30;;;;;;;;;;5088335;28;20074;-74
2022/06/10 02:43:36;;;;;;;16.58;4.00;;;;;;;;;;5083985;28;20024;-75
2022/06/10 02:46:09;;;;;;;24.40;5.70;;;;;;;;;;5084930;28;20444;-74
2022/06/10 02:48:43;;;;;;;20.92;4.90;;;;;;;;;;5080275;28;20480;-75
2022/06/10 02:51:09;;;;;;;18.95;4.68;;;;;;;;;;5079994;28;20383;-75
2022/06/10 02:53:36;;;;;;;22.70;5.57;;;;;;;;;;5085239;28;20055;-79
2022/06/10 02:56:13;;;;;;;15.98;5.80;;;;;;;;;;5076944;28;20044;-79
2022/06/10 03:01:31;;;;;;;26.38;5.35;;;;;;;;;;5083547;28;20043;-75
2022/06/10 03:04:06;;;;;;;16.10;4.18;;;;;;;;;;5078354;28;20027;-76
2022/06/10 03:06:51;;;;;;;18.35;5.53;;;;;;;;;;5065233;28;20020;-75
2022/06/10 03:09:20;;;;;;;20.73;4.93;;;;;;;;;;5083005;28;20475;-75
2022/06/10 03:12:06;;;;;;;20.20;5.03;;;;;;;;;;5081842;28;20047;-78
2022/06/10 03:14:50;;;;;;;17.33;5.60;;;;;;;;;;5082660;28;20055;-75
2022/06/10 03:17:35;;;;;;;24.73;5.22;;;;;;;;;;5078529;28;20473;-78
2022/06/10 03:20:01;;;;;;;17.35;4.75;;;;;;;;;;5077194;28;20787;-74
2022/06/10 03:22:42;;;;;;;18.38;4.75;;;;;;;;;;5081945;28;20024;-75
2022/06/10 03:25:31;;;;;;;19.38;4.82;;;;;;;;;;5072994;28;20824;-78
2022/06/10 03:28:02;;;;;;;20.55;9.32;;;;;;;;;;5072306;28;20529;-75
2022/06/10 03:30:31;;;;;;;25.65;7.95;;;;;;;;;;5082132;28;20023;-75
2022/06/10 03:33:23;;;;;;;16.83;4.47;;;;;;;;;;5077287;28;20046;-78
2022/06/10 03:35:53;;;;;;;22.17;4.80;;;;;;;;;;5067096;28;20024;-75
2022/06/10 03:38:19;;;;;;;15.35;4.25;;;;;;;;;;5078978;28;20023;-76
2022/06/10 03:40:52;;;;;;;19.73;4.85;;;;;;;;;;5076392;28;20635;-76
2022/06/10 03:43:18;;;;;;;20.13;5.40;;;;;;;;;;5075670;28;20028;-75
2022/06/10 03:45:50;;;;;;;15.50;4.70;;;;;;;;;;5074085;28;20024;-74
2022/06/10 03:48:18;;;;;;;17.45;4.40;;;;;;;;;;5082958;28;20316;-76
2022/06/10 03:50:46;;;;;;;20.40;5.30;;;;;;;;;;5082977;28;20012;-76
2022/06/10 03:53:14;;;;;;;25.45;5.35;;;;;;;;;;5059492;28;20038;-79
2022/06/10 03:55:40;;;;;;;20.27;5.25;;;;;;;;;;5072846;28;20106;-76
2022/06/10 03:58:07;;;;;;;19.83;5.60;;;;;;;;;;5080704;28;20496;-77
2022/06/10 04:00:33;;;;;;;21.25;5.32;;;;;;;;;;5080162;28;20119;-75
2022/06/10 04:02:59;;;;;;;18.98;5.38;;;;;;;;;;5072929;28;20027;-78
2022/06/10 04:05:25;;;;;;;20.40;5.60;;;;;;;;;;5067391;28;20032;-76
2022/06/10 04:07:51;;;;;;;21.95;5.95;;;;;;;;;;5071755;28;20135;-79
2022/06/10 04:10:20;;;;;;;19.55;5.53;;;;;;;;;;5080471;28;20107;-76
2022/06/10 04:12:46;;;;;;;26.63;5.65;;;;;;;;;;5080361;28;20081;-75
2022/06/10 04:15:16;;;;;;;20.90;5.70;;;;;;;;;;5078912;28;20815;-77
2022/06/10 04:17:44;;;;;;;29.50;6.05;;;;;;;;;;5080152;28;20031;-75
2022/06/10 04:20:12;;;;;;;15.85;4.57;;;;;;;;;;5077082;28;20028;-76
2022/06/10 04:22:38;;;;;;;11.23;3.00;;;;;;;;;;5068257;28;20039;-77
2022/06/10 04:25:05;;;;;;;5.93;1.88;;;;;;;;;;5078608;28;20155;-76
2022/06/10 04:27:31;;;;;;;14.43;3.90;;;;;;;;;;5080296;28;20101;-75
2022/06/10 04:29:58;;;;;;;12.10;3.58;;;;;;;;;;5078981;28;20032;-75
2022/06/10 04:32:24;;;;;;;23.33;5.60;;;;;;;;;;5079496;28;20046;-77
2022/06/10 04:34:50;;;;;;;24.65;5.70;;;;;;;;;;5079801;28;20036;-75
2022/06/10 04:37:16;;;;;;;22.23;4.72;;;;;;;;;;5079785;28;20034;-79
2022/06/10 04:39:42;;;;;;;12.77;3.50;;;;;;;;;;5079585;28;20075;-75
2022/06/10 04:42:09;;;;;;;13.30;3.88;;;;;;;;;;5079293;28;20040;-75
2022/06/10 04:44:35;;;;;;;16.05;4.20;;;;;;;;;;5078394;28;20024;-80
2022/06/10 04:47:02;;;;;;;17.77;4.53;;;;;;;;;;5064746;28;20032;-75
2022/06/10 04:49:30;;;;;;;16.90;3.63;;;;;;;;;;5058466;28;20028;-76
2022/06/10 04:51:56;;;;;;;11.52;3.35;;;;;;;;;;5057132;28;20043;-75
2022/06/10 04:54:22;;;;;;;12.50;3.17;;;;;;;;;;5067505;28;20090;-79
2022/06/10 04:56:48;;;;;;;16.20;3.88;;;;;;;;;;5059781;28;20040;-78
2022/06/10 04:59:14;;;;;;;16.27;4.60;;;;;;;;;;5067945;28;20641;-79
2022/06/10 05:01:40;;;;;;;19.50;3.42;;;;;;;;;;5057823;28;20040;-75
2022/06/10 05:04:07;;;;;;;16.75;3.95;;;;;;;;;;5067231;28;20015;-73
2022/06/10 05:06:34;;;;;;;10.40;3.50;;;;;;;;;;5059360;28;20064;-76
2022/06/10 05:09:00;;;;;;;15.20;3.58;;;;;;;;;;5060700;28;20111;-76
2022/06/10 05:11:26;;;;;;;9.20;2.97;;;;;;;;;;5058913;28;20040;-74
2022/06/10 05:13:53;;;;;;;13.88;2.90;;;;;;;;;;5056239;28;20740;-76
2022/06/10 05:16:19;;;;;;;11.75;3.35;;;;;;;;;;5062482;28;20024;-75
2022/06/10 05:18:46;;;;;;;12.70;3.42;;;;;;;;;;5060761;28;20028;-81
2022/06/10 05:21:12;;;;;;;13.48;3.55;;;;;;;;;;5057992;28;20037;-76
2022/06/10 05:23:38;;;;;;;12.88;3.30;;;;;;;;;;5067113;28;20029;-81
2022/06/10 05:26:05;;;;;;;10.63;2.95;;;;;;;;;;5076068;28;20028;-77
2022/06/10 05:28:31;;;;;;;8.88;2.88;;;;;;;;;;5069255;28;20024;-80
2022/06/10 05:30:57;;;;;;;10.77;3.25;;;;;;;;;;5070932;28;20563;-81
2022/06/10 05:33:23;;;;;;;9.20;2.83;;;;;;;;;;5068827;28;20475;-80
2022/06/10 05:35:49;;;;;;;17.27;4.05;;;;;;;;;;5068909;28;20035;-80
2022/06/10 05:38:16;;;;;;;13.32;3.58;;;;;;;;;;5058893;28;20623;-80
2022/06/10 05:40:42;;;;;;;11.80;2.95;;;;;;;;;;5065334;28;20155;-80
2022/06/10 05:43:08;;;;;;;9.57;2.92;;;;;;;;;;5070876;28;20028;-80
2022/06/10 05:45:35;;;;;;;13.23;3.17;;;;;;;;;;5065756;28;20036;-80
2022/06/10 05:48:02;;;;;;;12.77;3.35;;;;;;;;;;5058783;28;20020;-80
2022/06/10 05:50:39;;;;;;;10.52;3.10;;;;;;;;;;5068024;28;20024;-81
2022/06/10 05:53:07;;;;;;;14.65;3.08;;;;;;;;;;5068518;28;20488;-78
2022/06/10 05:55:34;;;;;;;11.82;3.15;;;;;;;;;;5075722;28;20054;-77
2022/06/10 05:58:01;;;;;;;12.98;3.05;;;;;;;;;;5071497;28;20032;-83
2022/06/10 06:00:33;;;;;;;17.90;3.85;;;;;;;;;;5060824;28;20024;-83
2022/06/10 06:02:59;;;;;;;11.02;3.28;;;;;;;;;;5054130;28;20668;-81
2022/06/10 06:05:26;;;;;;;12.30;2.83;;;;;;;;;;5072542;28;20365;-82
2022/06/10 06:07:52;;;;;;;12.30;3.33;;;;;;;;;;5074808;28;20507;-79
2022/06/10 06:10:20;;;;;;;8.63;2.67;;;;;;;;;;5077856;28;20060;-81
2022/06/10 06:12:52;;;;;;;11.05;3.10;;;;;;;;;;5046616;28;20632;-85
2022/06/10 06:15:32;;;;;;;10.90;2.55;;;;;;;;;;5060312;28;20578;-86
2022/06/10 06:17:59;;;;;;;10.23;3.20;;;;;;;;;;5054626;28;20034;-84
2022/06/10 06:20:25;;;;;;;13.30;3.40;;;;;;;;;;5056570;28;20764;-83
2022/06/10 06:22:53;;;;;;;9.93;3.00;;;;;;;;;;5061994;28;20177;-84
2022/06/10 06:25:19;;;;;;;9.15;2.55;;;;;;;;;;5063050;28;20027;-85
2022/06/10 06:27:46;;;;;;;14.48;3.72;;;;;;;;;;5082222;28;20032;-82
2022/06/10 06:30:26;;;;;;;10.20;2.50;;;;;;;;;;5074109;28;20123;-80
2022/06/10 06:32:52;;;;;;;13.25;3.08;;;;;;;;;;5069996;28;20086;-82
2022/06/10 06:35:19;;;;;;;13.98;2.63;;;;;;;;;;5071766;28;20028;-80
2022/06/10 06:37:45;;;;;;;10.38;2.13;;;;;;;;;;5075702;28;20024;-82
2022/06/10 06:40:12;;;;;;;9.68;2.53;;;;;;;;;;5060269;28;20071;-80
2022/06/10 06:42:38;;;;;;;9.40;2.65;;;;;;;;;;5071863;28;20031;-81
2022/06/10 06:45:05;;;;;;;9.65;2.30;;;;;;;;;;5079595;28;20103;-81
2022/06/10 06:47:32;;;;;;;10.65;2.50;;;;;;;;;;5061130;28;20030;-80
2022/06/10 06:49:58;;;;;;;10.48;2.28;;;;;;;;;;5075928;28;20543;-86
2022/06/10 06:52:24;;;;;;;13.30;2.55;;;;;;;;;;5070359;28;20729;-86
2022/06/10 06:54:51;;;;;;;11.35;2.80;;;;;;;;;;5074021;28;20024;-88
2022/06/10 06:57:20;;;;;;;10.45;2.30;;;;;;;;;;5052689;28;20086;-86
2022/06/10 06:59:46;;;;;;;13.18;2.72;;;;;;;;;;5072987;28;20024;-84
2022/06/10 07:02:12;;;;;;;9.40;2.05;;;;;;;;;;5075772;28;20037;-89
2022/06/10 07:04:39;;;;;;;13.00;2.03;;;;;;;;;;5064826;28;20039;-80
2022/06/10 07:07:05;;;;;;;6.35;1.55;;;;;;;;;;5084892;28;20743;-80
2022/06/10 07:09:31;;;;;;;12.70;1.98;;;;;;;;;;5065889;28;20023;-84
2022/06/10 07:11:59;;;;;;;8.85;2.67;;;;;;;;;;5055645;28;20051;-81
2022/06/10 07:14:26;;;;;;;8.38;2.17;;;;;;;;;;5052357;28;20190;-88
2022/06/10 07:16:52;;;;;;;14.93;2.78;;;;;;;;;;5073250;28;20108;-81
2022/06/10 07:19:19;;;;;;;11.15;1.83;;;;;;;;;;5067335;28;20101;-80
2022/06/10 07:21:45;;;;;;;7.63;1.50;;;;;;;;;;5071192;28;20123;-81
2022/06/10 07:24:12;;;;;;;5.50;1.60;;;;;;;;;;5073304;28;20036;-81
2022/06/10 07:26:39;;;;;;;5.60;1.63;;;;;;;;;;5079701;28;20157;-80
2022/06/10 07:29:06;;;;;;;5.97;1.73;;;;;;;;;;5065123;28;20024;-78
2022/06/10 07:31:33;;;;;;;5.47;1.23;;;;;;;;;;5075867;28;20024;-80
2022/06/10 07:33:59;;;;;;;5.22;1.63;;;;;;;;;;5074979;28;20103;-81
2022/06/10 07:36:26;;;;;;;5.65;1.30;;;;;;;;;;5068613;28;20032;-80
2022/06/10 07:38:53;;;;;;;7.40;1.38;;;;;;;;;;5068638;28;20584;-85
2022/06/10 07:44:04;;;;;;;6.80;2.05;;;;;;;;;;5077334;28;20027;-83
2022/06/10 07:46:30;;;;;;;7.82;2.00;;;;;;;;;;5070643;28;20656;-85
2022/06/10 07:48:56;;;;;;;6.55;1.88;;;;;;;;;;5072699;28;20020;-86
2022/06/10 07:51:23;;;;;;;6.65;1.88;;;;;;;;;;5066249;28;20098;-82
2022/06/10 07:53:49;;;;;;;11.65;1.55;;;;;;;;;;5072231;28;20110;-81
2022/06/10 07:56:17;;;;;;;8.77;1.60;;;;;;;;;;5074954;28;20606;-89
2022/06/10 07:58:44;;;;;;;9.60;1.67;;;;;;;;;;5076248;28;20506;-88
2022/06/10 08:01:10;;;;;;;8.13;1.80;;;;;;;;;;5073942;28;20036;-80
2022/06/10 08:03:37;;;;;;;8.13;1.70;;;;;;;;;;5073043;28;20031;-87
2022/06/10 08:06:03;;;;;;;8.93;1.83;;;;;;;;;;5068270;28;20025;-77
2022/06/10 08:08:29;;;;;;;7.05;1.52;;;;;;;;;;5064507;28;20028;-76
2022/06/10 08:10:56;;;;;;;9.43;2.08;;;;;;;;;;5064980;28;20648;-87
2022/06/10 08:13:23;;;;;;;7.63;1.60;;;;;;;;;;5071997;28;20463;-88
2022/06/10 08:15:49;;;;;;;7.53;2.13;;;;;;;;;;5057353;28;20036;-78
2022/06/10 08:18:16;;;;;;;8.35;1.65;;;;;;;;;;5082515;28;20718;-78
2022/06/10 08:23:29;;;;;;;10.57;1.73;;;;;;;;;;5059718;28;20107;-78
2022/06/10 08:25:57;;;;;;;7.85;1.83;;;;;;;;;;5059473;28;20534;-78
2022/06/10 08:28:23;;;;;;;7.80;1.60;;;;;;;;;;5059133;28;20476;-78
2022/06/10 08:30:50;;;;;;;13.43;2.05;;;;;;;;;;5059242;28;20035;-77
2022/06/10 08:33:16;;;;;;;6.90;2.08;;;;;;;;;;5059746;28;20036;-79
2022/06/10 08:35:42;;;;;;;8.80;1.77;;;;;;;;;;5072181;28;20032;-78
2022/06/10 08:38:10;;;;;;;10.57;1.95;;;;;;;;;;5067756;28;20028;-79
2022/06/10 08:40:55;;;;;;;13.20;2.47;;;;;;;;;;5075601;28;20040;-76
2022/06/10 08:43:45;;;;;;;7.40;1.92;;;;;;;;;;5079674;28;20046;-75
2022/06/10 08:46:26;;;;;;;8.20;1.75;;;;;;;;;;5067648;28;20388;-78
2022/06/10 08:49:01;;;;;;;7.50;1.83;;;;;;;;;;5078027;28;20135;-78
2022/06/10 08:51:31;;;;;;;8.45;1.48;;;;;;;;;;5072360;28;20385;-78
2022/06/10 08:54:08;;;;;;;11.90;2.40;;;;;;;;;;5055614;28;20472;-75
2022/06/10 08:56:36;;;;;;;7.45;1.73;;;;;;;;;;5077793;28;20048;-79
2022/06/10 08:59:07;;;;;;;11.45;2.50;;;;;;;;;;5078913;28;20020;-75
2022/06/10 09:01:46;;;;;;;5.28;1.75;;;;;;;;;;5072726;28;20038;-78
2022/06/10 09:04:12;;;;;;;10.15;2.63;;;;;;;;;;5063985;28;20028;-75
2022/06/10 09:06:42;;;;;;;7.63;2.15;;;;;;;;;;5060731;28;20035;-76
2022/06/10 09:09:11;;;;;;;13.60;2.65;;;;;;;;;;5064458;28;20024;-75
2022/06/10 09:12:11;;;;;;;8.25;2.10;;;;;;;;;;5063093;28;20028;-75
2022/06/10 09:14:37;;;;;;;10.93;2.28;;;;;;;;;;5037090;28;20055;-76
2022/06/10 09:17:06;;;;;;;8.65;1.90;;;;;;;;;;5064662;28;20021;-77
2022/06/10 09:19:38;;;;;;;7.00;2.03;;;;;;;;;;5069642;28;20110;-76
2022/06/10 09:22:10;;;;;;;9.73;1.90;;;;;;;;;;5068037;28;20119;-76
2022/06/10 09:24:56;;;;;;;10.30;2.50;;;;;;;;;;5052800;28;20050;-76
2022/06/10 09:27:34;;;;;;;10.93;1.95;;;;;;;;;;5062916;28;20071;-75
2022/06/10 09:30:03;;;;;;;7.65;2.05;;;;;;;;;;5061839;28;20082;-77
2022/06/10 09:32:29;;;;;;;7.63;1.90;;;;;;;;;;5054381;28;20024;-75
2022/06/10 09:34:56;;;;;;;9.77;1.90;;;;;;;;;;5064795;28;20028;-75
2022/06/10 09:37:34;;;;;;;7.78;1.58;;;;;;;;;;5065907;28;20016;-74
2022/06/10 09:42:45;;;;;;;10.90;2.55;;;;;;;;;;5074217;28;20096;-75
2022/06/10 09:45:23;;;;;;;7.68;2.13;;;;;;;;;;5055862;28;20029;-75
2022/06/10 09:47:58;;;;;;;11.40;2.20;;;;;;;;;;5068747;28;20027;-76
2022/06/10 09:50:40;;;;;;;6.55;1.77;;;;;;;;;;5054477;28;20436;-75
2022/06/10 09:53:32;;;;;;;7.57;1.75;;;;;;;;;;5072266;28;20024;-76
2022/06/10 09:56:01;;;;;;;9.88;2.00;;;;;;;;;;5071299;28;20150;-75
2022/06/10 09:58:44;;;;;;;12.00;2.55;;;;;;;;;;5068878;28;20127;-75
2022/06/10 10:01:27;;;;;;;15.05;2.50;;;;;;;;;;5066404;28;20032;-75
2022/06/10 10:04:14;;;;;;;9.18;2.40;;;;;;;;;;5065976;28;20020;-76
2022/06/10 10:06:43;;;;;;;7.45;2.25;;;;;;;;;;5078233;28;20024;-76
2022/06/10 10:09:22;;;;;;;8.27;2.20;;;;;;;;;;5072119;28;20036;-78
2022/06/10 10:11:51;;;;;;;7.85;2.38;;;;;;;;;;5066227;28;20967;-75
2022/06/10 10:14:27;;;;;;;7.53;1.92;;;;;;;;;;5070926;28;20452;-75
2022/06/10 10:16:53;;;;;;;10.77;2.15;;;;;;;;;;5068996;28;20020;-75
2022/06/10 10:19:34;;;;;;;11.02;2.42;;;;;;;;;;5063683;28;20066;-76
2022/06/10 10:22:03;;;;;;;5.68;1.52;;;;;;;;;;5066599;28;20036;-78
2022/06/10 10:24:33;;;;;;;9.80;2.00;;;;;;;;;;5066101;28;20043;-75
2022/06/10 10:27:00;;;;;;;12.15;2.00;;;;;;;;;;5056314;28;20100;-76
2022/06/10 10:29:29;;;;;;;7.82;2.08;;;;;;;;;;5070116;28;20081;-76
2022/06/10 10:32:02;;;;;;;11.20;1.92;;;;;;;;;;5080507;28;20042;-76
2022/06/10 10:34:36;;;;;;;10.32;2.42;;;;;;;;;;5073579;28;20048;-75
2022/06/10 10:37:03;;;;;;;9.75;2.22;;;;;;;;;;5063535;28;20013;-76
2022/06/10 10:39:30;;;;;;;9.80;2.30;;;;;;;;;;5068761;28;20039;-76
2022/06/10 10:41:58;;;;;;;9.65;2.40;;;;;;;;;;5074383;28;20519;-75
2022/06/10 10:44:44;;;;;;;8.73;2.13;;;;;;;;;;5083087;28;20115;-77
2022/06/10 10:47:10;;;;;;;11.90;2.33;;;;;;;;;;5071776;28;20434;-77
2022/06/10 10:49:58;;;;;;;7.25;2.13;;;;;;;;;;5065630;28;20024;-75
2022/06/10 10:52:29;;;;;;;10.88;2.30;;;;;;;;;;5061668;28;20507;-75
2022/06/10 10:54:57;;;;;;;12.77;2.30;;;;;;;;;;5058653;28;20024;-77
2022/06/10 10:57:26;;;;;;;15.82;3.90;;;;;;;;;;5066158;28;20021;-77
2022/06/10 11:00:13;;;;;;;17.83;4.30;;;;;;;;;;5071429;28;20020;-78
2022/06/10 11:02:49;;;;;;;12.05;4.25;;;;;;;;;;5059819;28;20154;-77
2022/06/10 11:05:26;;;;;;;9.18;2.70;;;;;;;;;;5080978;28;20016;-76
2022/06/10 11:08:11;;;;;;;12.55;2.25;;;;;;;;;;5079795;28;20031;-77
2022/06/10 11:10:41;;;;;;;9.05;2.67;;;;;;;;;;5079010;28;20107;-74
2022/06/10 11:13:08;;;;;;;11.35;3.45;;;;;;;;;;5064683;28;20016;-75
2022/06/10 11:15:34;;;;;;;9.68;2.75;;;;;;;;;;5064000;28;20048;-76
2022/06/10 11:18:01;;;;;;;10.82;3.15;;;;;;;;;;5068288;28;20032;-78
2022/06/10 11:20:27;;;;;;;11.75;2.60;;;;;;;;;;5073764;28;20028;-79
2022/06/10 11:23:09;;;;;;;8.30;2.47;;;;;;;;;;5073485;28;20035;-78
2022/06/10 11:25:36;;;;;;;9.60;2.13;;;;;;;;;;5064950;28;20025;-78
2022/06/10 11:28:16;;;;;;;9.07;2.45;;;;;;;;;;5059459;28;20059;-78
2022/06/10 11:30:44;;;;;;;5.78;2.10;;;;;;;;;;5065068;28;20095;-76
2022/06/10 11:33:18;;;;;;;8.40;2.10;;;;;;;;;;5061388;28;20025;-77
2022/06/10 11:36:00;;;;;;;4.93;1.95;;;;;;;;;;5064787;28;20032;-76
2022/06/10 11:38:28;;;;;;;6.20;1.70;;;;;;;;;;5059976;28;20384;-77
2022/06/10 11:40:55;;;;;;;13.75;2.50;;;;;;;;;;5072655;28;20020;-78
2022/06/10 11:43:22;;;;;;;11.98;2.40;;;;;;;;;;5076668;28;20668;-79
2022/06/10 11:45:57;;;;;;;8.38;1.95;;;;;;;;;;5078897;28;20023;-77
2022/06/10 11:48:46;;;;;;;7.07;1.77;;;;;;;;;;5076882;28;20036;-77
2022/06/10 11:51:27;;;;;;;9.38;1.90;;;;;;;;;;5058318;28;20044;-78
2022/06/10 11:54:05;;;;;;;9.35;1.80;;;;;;;;;;5072279;28;20081;-78
2022/06/10 11:59:53;;;;;;;6.05;2.25;;;;;;;;;;5071441;28;20720;-76
2022/06/10 12:02:30;;;;;;;5.25;1.55;;;;;;;;;;5028581;28;20052;-77
2022/06/10 12:05:15;;;;;;;9.00;2.08;;;;;;;;;;5068393;28;20099;-77
2022/06/10 12:07:45;;;;;;;7.68;2.30;;;;;;;;;;5078620;28;20043;-78
2022/06/10 12:10:15;;;;;;;7.95;1.83;;;;;;;;;;5077300;28;20093;-77
2022/06/10 12:12:43;;;;;;;10.20;2.00;;;;;;;;;;5074449;28;20396;-79
2022/06/10 12:15:16;;;;;;;11.27;2.65;;;;;;;;;;5064946;28;20044;-79
2022/06/10 12:17:44;;;;;;;6.05;1.63;;;;;;;;;;5054432;28;20032;-77
2022/06/10 12:20:16;;;;;;;7.15;1.90;;;;;;;;;;5065239;28;20044;-77
2022/06/10 12:22:42;;;;;;;5.35;1.67;;;;;;;;;;5066515;28;20067;-77
2022/06/10 12:25:17;;;;;;;8.98;1.98;;;;;;;;;;5069010;28;20778;-76
2022/06/10 12:27:49;;;;;;;8.35;2.45;;;;;;;;;;5066361;28;20082;-76
2022/06/10 12:30:20;;;;;;;5.65;1.63;;;;;;;;;;5061687;28;20627;-77
2022/06/10 12:32:46;;;;;;;7.03;1.80;;;;;;;;;;5061950;28;20111;-76
2022/06/10 12:35:15;;;;;;;3.38;1.40;;;;;;;;;;5064457;28;20032;-77
2022/06/10 12:37:41;;;;;;;5.57;2.13;;;;;;;;;;5072258;28;20692;-77
2022/06/10 12:40:13;;;;;;;12.40;2.28;;;;;;;;;;5066717;28;20035;-77
2022/06/10 12:42:42;;;;;;;8.55;2.63;;;;;;;;;;5058291;28;20033;-77
2022/06/10 12:45:31;;;;;;;10.25;2.05;;;;;;;;;;5058760;28;20027;-76
2022/06/10 12:47:59;;;;;;;7.25;2.28;;;;;;;;;;5062478;28;20119;-77
2022/06/10 12:50:30;;;;;;;8.43;2.10;;;;;;;;;;5066323;28;20025;-77
2022/06/10 12:52:56;;;;;;;;;;;;;;;;;;5057379;28;20435;-77
2022/06/10 12:55:32;;;;;;;6.70;2.38;;;;;;;;;;5043896;28;19908;-77
2022/06/10 12:57:58;;;;;;;7.88;2.05;;;;;;;;;;5058780;28;20040;-76
2022/06/10 13:00:36;;;;;;;11.30;2.10;;;;;;;;;;5051402;28;20577;-77
2022/06/10 13:03:15;;;;;;;7.82;1.90;;;;;;;;;;5068855;28;20048;-77
2022/06/10 13:05:41;;;;;;;7.30;2.08;;;;;;;;;;5061033;28;20025;-77
2022/06/10 13:08:26;;;;;;;12.45;2.75;;;;;;;;;;5066280;28;20050;-76
2022/06/10 13:10:57;;;;;;;8.70;2.28;;;;;;;;;;5061359;28;20097;-77
2022/06/10 13:13:23;;;;;;;6.45;1.70;;;;;;;;;;5058606;28;20020;-76
2022/06/10 13:15:54;;;;;;;10.40;2.50;;;;;;;;;;5066428;28;20097;-79
2022/06/10 13:18:27;;;;;;;7.32;2.00;;;;;;;;;;5074466;28;20111;-77
2022/06/10 13:20:53;;;;;;;6.10;2.55;;;;;;;;;;5073746;28;20375;-78
2022/06/10 13:23:26;;;;;;;9.00;2.58;;;;;;;;;;5069800;28;20086;-78
2022/06/10 13:26:13;;;;;;;7.07;2.22;;;;;;;;;;5072004;28;20550;-79
2022/06/10 13:28:40;;;;;;;8.75;2.25;;;;;;;;;;5058624;28;20025;-78
2022/06/10 13:31:21;;;;;;;10.25;2.25;;;;;;;;;;5066353;28;20660;-79
2022/06/10 13:33:56;;;;;;;9.18;1.98;;;;;;;;;;5062577;28;20035;-77
2022/06/10 13:36:25;;;;;;;9.23;2.53;;;;;;;;;;5057220;28;20045;-79
2022/06/10 13:38:53;;;;;;;9.95;1.65;;;;;;;;;;5063765;28;20208;-78
2022/06/10 13:41:49;;;;;;;8.60;1.55;;;;;;;;;;5078312;28;20190;-78
2022/06/10 13:44:33;;;;;;;9.27;2.03;;;;;;;;;;5073511;28;20032;-77
2022/06/10 13:47:00;;;;;;;10.18;1.85;;;;;;;;;;5069907;28;20710;-79
2022/06/10 13:49:51;;;;;;;7.40;1.90;;;;;;;;;;5068587;28;20091;-78
2022/06/10 13:52:27;;;;;;;10.25;1.77;;;;;;;;;;5076716;28;20028;-79
2022/06/10 13:54:53;;;;;;;8.63;1.88;;;;;;;;;;5067680;28;20616;-78
2022/06/10 13:57:21;;;;;;;7.93;1.98;;;;;;;;;;5074481;28;20104;-77
2022/06/10 13:59:56;;;;;;;10.65;2.25;;;;;;;;;;5062859;28;20108;-77
2022/06/10 14:02:27;;;;;;;14.90;2.28;;;;;;;;;;5073339;28;20036;-77
2022/06/10 14:04:54;;;;;;;19.65;3.05;;;;;;;;;;5069832;28;20163;-77
2022/06/10 14:07:27;;;;;;;16.63;3.15;;;;;;;;;;5083064;28;20024;-78
2022/06/10 14:09:54;;;;;;;10.98;1.90;;;;;;;;;;5075869;28;20029;-78
2022/06/10 14:12:27;;;;;;;11.32;1.95;;;;;;;;;;5061814;28;20037;-78
2022/06/10 14:15:04;;;;;;;6.57;1.98;;;;;;;;;;5081063;28;20060;-79
2022/06/10 14:17:30;;;;;;;6.28;1.75;;;;;;;;;;5071412;28;20032;-77
2022/06/10 14:19:59;;;;;;;9.10;2.05;;;;;;;;;;5079026;28;20039;-82
2022/06/10 14:22:29;;;;;;;8.07;1.90;;;;;;;;;;5070761;28;20040;-80
2022/06/10 14:25:14;;;;;;;7.05;1.73;;;;;;;;;;5079667;28;20081;-80
2022/06/10 14:27:43;;;;;;;7.60;1.80;;;;;;;;;;5064974;28;20035;-77
2022/06/10 14:30:09;;;;;;;12.02;2.47;;;;;;;;;;5079199;28;20028;-77
2022/06/10 14:32:36;;;;;;;12.52;2.30;;;;;;;;;;5081070;28;20289;-76
2022/06/10 14:35:04;;;;;;;11.45;2.03;;;;;;;;;;5080279;28;20024;-77
2022/06/10 14:37:32;;;;;;;14.55;2.10;;;;;;;;;;5074859;28;20555;-81
2022/06/10 14:40:19;;;;;;;8.65;2.38;;;;;;;;;;5073494;28;20028;-78
2022/06/10 14:42:47;;;;;;;8.70;2.45;;;;;;;;;;5067907;28;20150;-79
2022/06/10 14:45:25;;;;;;;8.90;2.17;;;;;;;;;;5081823;28;20020;-76
2022/06/10 14:48:06;;;;;;;9.30;1.80;;;;;;;;;;5067701;28;20031;-75
2022/06/10 14:50:35;;;;;;;6.35;1.95;;;;;;;;;;5068145;28;20023;-79
2022/06/10 14:53:02;;;;;;;6.65;1.80;;;;;;;;;;5059540;28;20064;-78
2022/06/10 14:55:32;;;;;;;10.68;1.98;;;;;;;;;;5061125;28;20016;-76
2022/06/10 14:58:00;;;;;;;12.63;2.60;;;;;;;;;;5062204;28;20028;-78
2022/06/10 15:00:28;;;;;;;9.02;2.55;;;;;;;;;;5064055;28;20035;-81
2022/06/10 15:02:54;;;;;;;9.82;2.20;;;;;;;;;;5067187;28;20031;-82
2022/06/10 15:08:08;;;;;;;11.73;2.63;;;;;;;;;;5074081;28;20131;-76
2022/06/10 15:10:36;;;;;;;13.68;2.67;;;;;;;;;;5066846;28;20032;-77
2022/06/10 15:13:02;;;;;;;9.85;2.17;;;;;;;;;;5072463;28;20029;-79
2022/06/10 15:15:28;;;;;;;10.23;2.05;;;;;;;;;;5068052;28;20478;-80